Time;durP1;ratioP1;P1;durP2;ratioP2;P2;SDS_P1;SDS_P2;PMS_P1;PMS_P2;Temp;Humidity;BMP_temperature;BMP_pressure;BME280_temperature;BME280_humidity;BME280_pressure;Samples;Min_cycle;Max_cycle;Signal;HPM_P1;HPM_P2
2022/10/18 00:00:59;;;;;;;8.40;6.82;;;;;;;16.35;100.00;102452.00;5237219;28;20390;-76
2022/10/18 00:03:32;;;;;;;8.00;6.50;;;;;;;16.35;100.00;102448.50;5245059;28;20013;-77
2022/10/18 00:06:04;;;;;;;7.43;6.57;;;;;;;16.33;100.00;102442.50;5243668;28;20397;-76
2022/10/18 00:08:37;;;;;;;9.05;6.68;;;;;;;16.26;100.00;102450.97;5236903;28;20024;-77
2022/10/18 00:11:08;;;;;;;9.98;7.50;;;;;;;16.26;100.00;102448.31;5246242;28;20625;-77
2022/10/18 00:13:40;;;;;;;9.82;6.80;;;;;;;16.32;100.00;102443.47;5245004;28;20139;-77
2022/10/18 00:16:14;;;;;;;9.52;7.00;;;;;;;16.38;100.00;102445.63;5235470;28;20021;-80
2022/10/18 00:18:47;;;;;;;10.77;6.75;;;;;;;16.27;100.00;102442.06;5228194;28;20017;-77
2022/10/18 00:21:20;;;;;;;8.13;6.47;;;;;;;16.28;100.00;102443.72;5245532;28;20105;-77
2022/10/18 00:23:52;;;;;;;8.65;6.43;;;;;;;16.29;100.00;102445.44;5244949;28;20021;-76
2022/10/18 00:26:26;;;;;;;7.28;6.50;;;;;;;16.28;100.00;102441.09;5245707;28;20032;-77
2022/10/18 00:29:00;;;;;;;8.65;6.55;;;;;;;16.32;100.00;102448.75;5245337;28;20028;-78
2022/10/18 00:31:36;;;;;;;7.78;6.65;;;;;;;16.30;100.00;102447.09;5244389;28;20056;-81
2022/10/18 00:34:14;;;;;;;7.85;6.32;;;;;;;16.30;100.00;102435.69;5246160;28;20470;-77
2022/10/18 00:36:45;;;;;;;7.88;6.90;;;;;;;16.19;100.00;102433.94;5237011;28;20381;-77
2022/10/18 00:39:18;;;;;;;10.02;6.78;;;;;;;16.22;100.00;102431.03;5245452;28;20021;-80
2022/10/18 00:41:50;;;;;;;9.30;7.13;;;;;;;16.20;100.00;102435.59;5246167;28;20551;-78
2022/10/18 00:44:24;;;;;;;9.80;6.32;;;;;;;16.28;100.00;102446.38;5244583;28;20037;-77
2022/10/18 00:46:59;;;;;;;8.32;6.90;;;;;;;16.22;100.00;102444.25;5243991;28;20509;-76
2022/10/18 00:49:38;;;;;;;7.32;5.97;;;;;;;16.29;100.00;102450.72;5246010;28;20029;-77
2022/10/18 00:52:15;;;;;;;8.02;7.22;;;;;;;16.23;100.00;102442.44;5243990;28;20029;-76
2022/10/18 00:54:48;;;;;;;7.05;6.38;;;;;;;16.14;100.00;102441.41;5236493;28;20480;-77
2022/10/18 00:57:20;;;;;;;8.93;6.65;;;;;;;16.16;100.00;102450.03;5245184;28;20032;-77
2022/10/18 00:59:52;;;;;;;9.07;6.63;;;;;;;16.12;100.00;102448.63;5234709;28;20029;-77
2022/10/18 01:02:24;;;;;;;9.32;6.85;;;;;;;16.16;100.00;102450.03;5243674;28;20441;-76
2022/10/18 01:04:56;;;;;;;7.47;6.68;;;;;;;16.15;100.00;102458.94;5244042;28;20056;-77
2022/10/18 01:07:36;;;;;;;9.88;7.68;;;;;;;16.16;100.00;102460.63;5244186;28;20460;-77
2022/10/18 01:10:25;;;;;;;12.55;7.97;;;;;;;16.30;100.00;102462.13;5244524;28;20025;-76
2022/10/18 01:13:24;;;;;;;8.82;7.25;;;;;;;16.31;100.00;102469.09;5243230;28;20079;-77
2022/10/18 01:16:00;;;;;;;8.98;7.07;;;;;;;16.22;100.00;102465.41;5243136;28;20040;-80
2022/10/18 01:18:51;;;;;;;9.88;7.70;;;;;;;16.40;100.00;102463.03;5244779;28;20041;-77
2022/10/18 01:21:58;;;;;;;10.70;7.35;;;;;;;16.44;100.00;102460.97;5243003;28;20432;-77
2022/10/18 01:24:52;;;;;;;10.68;7.75;;;;;;;16.42;100.00;102457.63;5244338;28;20402;-77
2022/10/18 01:27:32;;;;;;;11.02;7.60;;;;;;;16.34;100.00;102460.91;5243661;28;20064;-79
2022/10/18 01:30:31;;;;;;;8.57;7.72;;;;;;;16.45;100.00;102462.66;5243013;28;20025;-77
2022/10/18 01:33:28;;;;;;;8.95;6.90;;;;;;;16.39;100.00;102457.88;5244944;28;20537;-77
2022/10/18 01:36:22;;;;;;;8.30;6.93;;;;;;;16.43;100.00;102462.75;5243387;28;20017;-80
2022/10/18 01:38:57;;;;;;;9.63;6.78;;;;;;;16.18;100.00;102458.72;5243327;28;20045;-81
2022/10/18 01:41:29;;;;;;;7.82;6.82;;;;;;;16.09;100.00;102470.03;5243744;28;20460;-77
2022/10/18 01:44:03;;;;;;;8.30;6.97;;;;;;;16.14;100.00;102473.16;5244535;28;20120;-77
2022/10/18 01:46:37;;;;;;;8.00;7.15;;;;;;;16.07;100.00;102473.78;5244011;28;20031;-77
2022/10/18 01:49:08;;;;;;;9.32;6.30;;;;;;;16.07;100.00;102464.03;5244472;28;20100;-80
2022/10/18 01:51:39;;;;;;;10.20;7.20;;;;;;;16.04;100.00;102459.00;5242953;28;20401;-77
2022/10/18 01:54:15;;;;;;;8.48;6.72;;;;;;;16.10;100.00;102466.44;5244790;28;20025;-79
2022/10/18 01:56:55;;;;;;;9.45;7.15;;;;;;;16.12;100.00;102467.13;5243946;28;20110;-77
2022/10/18 01:59:45;;;;;;;8.27;7.32;;;;;;;16.24;100.00;102466.09;5244068;28;20052;-79
2022/10/18 02:02:39;;;;;;;8.95;7.20;;;;;;;16.11;100.00;102472.56;5242707;28;20086;-79
2022/10/18 02:05:45;;;;;;;9.32;7.13;;;;;;;16.11;100.00;102462.81;5242172;28;20039;-76
2022/10/18 02:08:43;;;;;;;9.77;7.00;;;;;;;16.21;100.00;102462.88;5243088;28;20536;-77
2022/10/18 02:11:16;;;;;;;9.05;7.00;;;;;;;15.94;100.00;102472.13;5224437;28;20072;-77
2022/10/18 02:13:55;;;;;;;8.07;6.85;;;;;;;16.00;100.00;102468.16;5243061;28;20558;-78
2022/10/18 02:16:58;;;;;;;8.80;6.13;;;;;;;16.26;100.00;102464.19;5244884;28;20547;-78
2022/10/18 02:19:35;;;;;;;9.95;7.35;;;;;;;15.98;100.00;102460.31;5229871;28;20049;-77
2022/10/18 02:22:09;;;;;;;8.27;6.90;;;;;;;15.88;100.00;102467.34;5235160;28;20494;-80
2022/10/18 02:24:47;;;;;;;7.63;6.68;;;;;;;15.92;100.00;102470.59;5244696;28;20039;-79
2022/10/18 02:27:18;;;;;;;7.68;6.60;;;;;;;15.79;100.00;102468.91;5248250;28;20034;-77
2022/10/18 02:29:51;;;;;;;9.07;6.70;;;;;;;15.75;100.00;102472.78;5248359;28;20396;-81
2022/10/18 02:32:25;;;;;;;11.55;6.40;;;;;;;15.80;100.00;102475.06;5246455;28;20052;-76
2022/10/18 02:35:14;;;;;;;7.85;6.90;;;;;;;16.03;100.00;102476.66;5248591;28;20035;-77
2022/10/18 02:37:48;;;;;;;8.52;6.88;;;;;;;15.78;100.00;102472.53;5266932;23;20106;-74
2022/10/18 02:40:20;;;;;;;7.57;6.45;;;;;;;15.70;100.00;102479.41;5247024;28;20037;-74
2022/10/18 02:42:56;;;;;;;7.57;6.38;;;;;;;15.84;100.00;102483.59;5247310;28;20068;-74
2022/10/18 02:45:27;;;;;;;7.10;6.32;;;;;;;15.75;100.00;102479.88;5250900;28;20113;-74
2022/10/18 02:47:58;;;;;;;8.77;7.25;;;;;;;15.74;100.00;102486.97;5249259;28;20028;-74
2022/10/18 02:50:30;;;;;;;9.02;6.55;;;;;;;15.76;100.00;102478.94;5248238;28;20116;-74
2022/10/18 02:53:01;;;;;;;8.48;6.25;;;;;;;15.76;100.00;102477.13;5248919;28;20027;-74
2022/10/18 02:55:32;;;;;;;8.43;6.75;;;;;;;15.72;100.00;102478.34;5249513;28;20112;-74
2022/10/18 02:58:03;;;;;;;6.97;6.25;;;;;;;15.73;100.00;102476.53;5255856;28;20559;-74
2022/10/18 03:00:35;;;;;;;8.13;6.95;;;;;;;15.73;100.00;102479.16;5250363;28;20029;-74
2022/10/18 03:03:06;;;;;;;6.80;6.20;;;;;;;15.72;100.00;102474.81;5249824;28;20643;-74
2022/10/18 03:05:37;;;;;;;7.55;5.93;;;;;;;15.72;100.00;102478.34;5248449;28;20446;-74
2022/10/18 03:08:08;;;;;;;7.57;6.50;;;;;;;15.71;100.00;102474.00;5249263;28;20073;-74
2022/10/18 03:10:42;;;;;;;7.45;6.63;;;;;;;15.77;100.00;102476.16;5252552;28;20413;-74
2022/10/18 03:13:14;;;;;;;10.68;6.70;;;;;;;15.70;100.00;102480.25;5248099;28;20466;-74
2022/10/18 03:15:46;;;;;;;10.45;7.00;;;;;;;15.67;100.00;102477.84;5250115;28;20021;-74
2022/10/18 03:18:18;;;;;;;10.00;6.90;;;;;;;15.73;100.00;102481.81;5249397;28;20028;-74
2022/10/18 03:20:49;;;;;;;9.95;7.10;;;;;;;15.70;100.00;102469.69;5249227;28;20033;-74
2022/10/18 03:23:20;;;;;;;9.20;7.43;;;;;;;15.65;100.00;102473.63;5252329;28;20031;-74
2022/10/18 03:25:51;;;;;;;7.50;6.75;;;;;;;15.70;100.00;102485.53;5250545;28;20037;-74
2022/10/18 03:28:23;;;;;;;8.77;6.63;;;;;;;15.73;100.00;102489.75;5246956;28;20057;-74
2022/10/18 03:31:01;;;;;;;7.18;6.20;;;;;;;15.82;100.00;102483.69;5247378;28;20025;-73
2022/10/18 03:33:33;;;;;;;7.22;6.53;;;;;;;15.69;100.00;102483.84;5248407;28;20086;-74
2022/10/18 03:36:04;;;;;;;7.30;6.65;;;;;;;15.65;100.00;102477.16;5248245;28;20029;-74
2022/10/18 03:38:36;;;;;;;8.35;7.55;;;;;;;15.71;100.00;102487.19;5249071;28;20102;-74
2022/10/18 03:41:07;;;;;;;8.40;7.40;;;;;;;15.71;100.00;102479.28;5248027;28;20122;-74
2022/10/18 03:43:38;;;;;;;12.18;8.10;;;;;;;15.68;100.00;102492.75;5247697;28;20033;-74
2022/10/18 03:46:10;;;;;;;10.10;8.13;;;;;;;15.65;100.00;102487.72;5248731;28;20311;-74
2022/10/18 03:48:41;;;;;;;10.03;8.63;;;;;;;15.66;100.00;102488.53;5247764;28;20501;-74
2022/10/18 03:51:12;;;;;;;9.02;7.60;;;;;;;15.65;100.00;102481.56;5245214;28;21110;-74
2022/10/18 03:53:43;;;;;;;13.55;8.88;;;;;;;15.60;100.00;102467.88;5249657;28;20025;-74
2022/10/18 03:56:15;;;;;;;12.20;8.85;;;;;;;15.58;100.00;102468.84;5247669;28;20021;-74
2022/10/18 03:58:46;;;;;;;12.82;8.55;;;;;;;15.60;100.00;102471.34;5249516;28;20064;-74
2022/10/18 04:01:17;;;;;;;11.45;8.38;;;;;;;15.60;100.00;102473.97;5247627;28;20032;-74
2022/10/18 04:03:48;;;;;;;10.50;8.02;;;;;;;15.55;100.00;102471.72;5249223;28;20606;-74
2022/10/18 04:06:20;;;;;;;11.57;8.32;;;;;;;15.51;100.00;102472.94;5249635;28;20029;-74
2022/10/18 04:08:51;;;;;;;8.68;7.88;;;;;;;15.49;100.00;102472.22;5246795;28;20064;-74
2022/10/18 04:11:22;;;;;;;11.90;8.68;;;;;;;15.54;100.00;102472.69;5247954;28;20031;-74
2022/10/18 04:13:54;;;;;;;11.05;8.95;;;;;;;15.48;100.00;102472.31;5245767;28;20379;-74
2022/10/18 04:16:25;;;;;;;12.82;8.90;;;;;;;15.50;100.00;102478.34;5248769;28;20426;-73
2022/10/18 04:18:56;;;;;;;10.05;9.02;;;;;;;15.49;100.00;102471.34;5246958;28;20219;-73
2022/10/18 04:21:28;;;;;;;9.10;8.30;;;;;;;15.49;100.00;102474.00;5246325;28;20409;-73
2022/10/18 04:23:59;;;;;;;8.35;7.55;;;;;;;15.47;100.00;102478.59;5247018;28;20025;-74
2022/10/18 04:26:31;;;;;;;10.35;8.25;;;;;;;15.43;100.00;102480.63;5246158;28;20029;-74
2022/10/18 04:29:02;;;;;;;8.63;7.82;;;;;;;15.42;100.00;102483.38;5248415;28;20033;-74
2022/10/18 04:31:33;;;;;;;9.85;7.90;;;;;;;15.35;100.00;102488.31;5246974;28;20111;-73
2022/10/18 04:34:05;;;;;;;9.95;8.90;;;;;;;15.38;100.00;102481.94;5248166;28;20040;-74
2022/10/18 04:36:36;;;;;;;9.60;8.60;;;;;;;15.33;100.00;102479.66;5247230;28;20048;-74
2022/10/18 04:39:07;;;;;;;8.60;7.88;;;;;;;15.29;100.00;102488.78;5247968;28;20041;-74
2022/10/18 04:41:38;;;;;;;9.15;8.25;;;;;;;15.27;100.00;102488.91;5248770;28;20051;-73
2022/10/18 04:44:10;;;;;;;9.27;8.35;;;;;;;15.26;100.00;102491.66;5246809;28;20530;-74
2022/10/18 04:46:41;;;;;;;11.23;8.68;;;;;;;15.28;100.00;102484.47;5249083;28;20026;-74
2022/10/18 04:49:13;;;;;;;11.50;9.25;;;;;;;15.22;100.00;102477.88;5247240;28;20029;-74
2022/10/18 04:51:44;;;;;;;10.50;9.45;;;;;;;15.19;100.00;102488.69;5248652;28;20180;-74
2022/10/18 04:54:15;;;;;;;12.27;9.90;;;;;;;15.23;100.00;102502.50;5246817;28;20029;-74
2022/10/18 04:56:47;;;;;;;11.88;8.55;;;;;;;15.18;100.00;102500.19;5247109;28;20147;-74
2022/10/18 04:59:18;;;;;;;13.23;9.80;;;;;;;15.15;100.00;102497.78;5245370;28;20025;-74
2022/10/18 05:01:49;;;;;;;12.70;10.07;;;;;;;15.13;100.00;102497.06;5244630;28;20029;-74
2022/10/18 05:04:20;;;;;;;10.65;9.65;;;;;;;15.15;100.00;102489.84;5245649;28;20032;-74
2022/10/18 05:06:52;;;;;;;12.02;9.55;;;;;;;15.15;100.00;102483.75;5248008;28;20020;-74
2022/10/18 05:09:23;;;;;;;11.05;9.98;;;;;;;15.15;100.00;102489.84;5248622;28;20033;-74
2022/10/18 05:11:54;;;;;;;13.43;10.52;;;;;;;15.11;100.00;102483.13;5247437;28;20013;-74
2022/10/18 05:14:26;;;;;;;14.07;10.50;;;;;;;15.08;100.00;102493.97;5245486;28;20032;-74
2022/10/18 05:16:57;;;;;;;11.45;9.70;;;;;;;15.09;100.00;102506.19;5245676;28;20084;-74
2022/10/18 05:19:28;;;;;;;9.88;8.82;;;;;;;15.06;100.00;102494.06;5246355;28;20777;-74
2022/10/18 05:22:00;;;;;;;11.20;8.55;;;;;;;15.05;100.00;102496.84;5247244;28;20032;-74
2022/10/18 05:24:31;;;;;;;10.90;9.80;;;;;;;15.05;100.00;102504.75;5252918;28;20037;-74
2022/10/18 05:27:02;;;;;;;15.15;9.45;;;;;;;15.07;100.00;102510.75;5254486;28;20024;-74
2022/10/18 05:29:33;;;;;;;10.80;9.60;;;;;;;15.02;100.00;102507.63;5251083;28;20736;-74
2022/10/18 05:32:05;;;;;;;11.73;10.07;;;;;;;15.01;100.00;102498.03;5251702;28;20119;-74
2022/10/18 05:34:36;;;;;;;14.15;10.80;;;;;;;14.97;100.00;102512.44;5252044;28;20017;-74
2022/10/18 05:37:07;;;;;;;13.57;10.82;;;;;;;14.98;100.00;102506.19;5252542;28;20013;-75
2022/10/18 05:39:38;;;;;;;13.73;11.43;;;;;;;14.96;100.00;102513.38;5251580;28;20031;-74
2022/10/18 05:42:10;;;;;;;20.63;12.13;;;;;;;14.92;100.00;102502.19;5250520;28;20025;-74
2022/10/18 05:44:41;;;;;;;20.33;11.60;;;;;;;14.95;100.00;102506.41;5254580;28;20025;-74
2022/10/18 05:47:12;;;;;;;18.42;11.75;;;;;;;14.91;100.00;102505.81;5249365;28;20477;-74
2022/10/18 05:49:43;;;;;;;19.95;12.18;;;;;;;14.90;100.00;102505.94;5252422;28;20029;-74
2022/10/18 05:52:15;;;;;;;16.15;11.45;;;;;;;14.90;100.00;102511.22;5253708;28;20380;-74
2022/10/18 05:54:47;;;;;;;29.92;13.07;;;;;;;14.91;100.00;102507.59;5250751;28;20025;-74
2022/10/18 05:57:18;;;;;;;14.02;11.27;;;;;;;14.88;100.00;102513.13;5252127;28;20500;-74
2022/10/18 05:59:49;;;;;;;46.75;12.57;;;;;;;14.77;100.00;102512.16;5252747;28;20044;-74
2022/10/18 06:02:20;;;;;;;29.67;12.25;;;;;;;14.84;100.00;102521.25;5249988;28;20029;-73
2022/10/18 06:04:52;;;;;;;26.45;11.30;;;;;;;14.80;100.00;102522.44;5249942;28;20087;-73
2022/10/18 06:07:23;;;;;;;26.05;11.25;;;;;;;14.75;100.00;102527.25;5251676;28;20090;-73
2022/10/18 06:09:54;;;;;;;20.33;10.48;;;;;;;14.78;100.00;102534.09;5251256;28;20088;-73
2022/10/18 06:12:26;;;;;;;33.65;10.93;;;;;;;14.73;100.00;102529.16;5252013;28;20136;-73
2022/10/18 06:14:57;;;;;;;13.52;9.52;;;;;;;14.73;100.00;102526.50;5250003;28;20071;-73
2022/10/18 06:17:28;;;;;;;33.70;11.05;;;;;;;14.71;100.00;102527.59;5249470;28;20021;-73
2022/10/18 06:19:59;;;;;;;30.17;9.40;;;;;;;14.72;100.00;102530.13;5244238;28;20044;-73
2022/10/18 06:22:31;;;;;;;17.83;8.90;;;;;;;14.75;100.00;102531.69;5248356;28;20067;-73
2022/10/18 06:25:02;;;;;;;16.88;8.48;;;;;;;14.73;100.00;102537.06;5249827;28;20385;-73
2022/10/18 06:27:34;;;;;;;16.35;8.57;;;;;;;14.73;100.00;102541.50;5245312;28;20337;-73
2022/10/18 06:30:06;;;;;;;26.75;9.38;;;;;;;14.72;100.00;102540.66;5245880;28;20033;-73
2022/10/18 06:32:37;;;;;;;21.10;8.50;;;;;;;14.71;100.00;102543.44;5248372;28;20066;-73
2022/10/18 06:35:08;;;;;;;17.80;8.68;;;;;;;14.73;100.00;102541.50;5257445;28;20029;-73
2022/10/18 06:37:39;;;;;;;28.52;10.00;;;;;;;14.76;100.00;102549.19;5249876;28;20049;-73
2022/10/18 06:40:11;;;;;;;27.08;8.82;;;;;;;14.79;100.00;102554.25;5247345;28;20037;-73
2022/10/18 06:42:42;;;;;;;21.05;8.98;;;;;;;14.80;100.00;102558.56;5248782;28;20083;-73
2022/10/18 06:45:14;;;;;;;17.98;9.40;;;;;;;14.83;100.00;102556.53;5248038;28;20066;-74
2022/10/18 06:47:46;;;;;;;13.63;9.43;;;;;;;14.85;100.00;102545.88;5250890;28;20404;-73
2022/10/18 06:50:17;;;;;;;15.98;8.70;;;;;;;14.89;100.00;102547.31;5248063;28;20044;-73
2022/10/18 06:52:51;;;;;;;17.88;9.90;;;;;;;14.97;100.00;102549.38;5248146;28;20032;-73
2022/10/18 06:55:22;;;;;;;19.35;9.00;;;;;;;14.94;100.00;102560.16;5248758;28;20091;-73
2022/10/18 06:57:53;;;;;;;21.65;9.10;;;;;;;14.96;100.00;102577.53;5248009;28;20021;-73
2022/10/18 07:00:25;;;;;;;28.58;8.63;;;;;;;14.97;100.00;102581.88;5253327;28;20030;-73
2022/10/18 07:02:57;;;;;;;22.40;8.13;;;;;;;14.93;100.00;102588.34;5249777;28;20104;-73
2022/10/18 07:05:28;;;;;;;12.80;7.93;;;;;;;14.96;100.00;102581.97;5250925;28;20037;-74
2022/10/18 07:08:00;;;;;;;18.27;8.32;;;;;;;15.03;100.00;102589.31;5252046;28;20017;-75
2022/10/18 07:10:31;;;;;;;14.25;7.75;;;;;;;15.00;100.00;102594.84;5250970;28;20041;-74
2022/10/18 07:13:02;;;;;;;15.60;7.40;;;;;;;14.97;100.00;102599.53;5250027;28;20048;-74
2022/10/18 07:15:37;;;;;;;16.67;8.13;;;;;;;14.94;100.00;102605.88;5250386;28;20025;-74
2022/10/18 07:18:08;;;;;;;19.60;8.57;;;;;;;14.93;100.00;102606.00;5250380;28;20017;-74
2022/10/18 07:20:39;;;;;;;15.98;8.13;;;;;;;14.96;100.00;102597.81;5249941;28;20021;-74
2022/10/18 07:23:11;;;;;;;9.93;8.98;;;;;;;15.00;100.00;102600.13;5245276;28;20036;-74
2022/10/18 07:25:42;;;;;;;18.67;8.85;;;;;;;15.01;100.00;102601.81;5250001;28;20029;-74
2022/10/18 07:28:13;;;;;;;22.02;9.63;;;;;;;15.06;100.00;102612.84;5249780;28;20569;-74
2022/10/18 07:30:45;;;;;;;15.30;10.32;;;;;;;15.07;100.00;102621.59;5249508;28;20027;-74
2022/10/18 07:33:16;;;;;;;26.45;10.15;;;;;;;15.08;100.00;102632.06;5247106;28;20032;-74
2022/10/18 07:35:47;;;;;;;14.32;10.40;;;;;;;15.10;100.00;102621.38;5249297;28;20025;-74
2022/10/18 07:38:18;;;;;;;28.40;11.07;;;;;;;15.11;100.00;102624.84;5245887;28;20041;-74
2022/10/18 07:40:56;;;;;;;35.45;12.27;;;;;;;15.27;100.00;102638.59;5249066;28;20036;-74
2022/10/18 07:43:28;;;;;;;21.90;11.98;;;;;;;15.20;100.00;102648.78;5250645;28;20029;-74
2022/10/18 07:46:01;;;;;;;38.10;13.20;;;;;;;15.26;100.00;102644.81;5247788;28;20047;-74
2022/10/18 07:48:33;;;;;;;24.83;12.32;;;;;;;15.29;100.00;102648.06;5248309;28;20369;-74
2022/10/18 07:51:04;;;;;;;31.13;13.18;;;;;;;15.27;100.00;102659.72;5247445;28;20516;-74
2022/10/18 07:53:36;;;;;;;20.48;13.35;;;;;;;15.31;100.00;102666.44;5250337;28;20404;-75
2022/10/18 07:56:16;;;;;;;32.40;13.10;;;;;;;15.28;100.00;102672.78;5240992;28;20036;-75
2022/10/18 07:58:51;;;;;;;21.38;12.60;;;;;;;15.35;100.00;102670.53;5245577;28;20032;-75
2022/10/18 08:01:24;;;;;;;19.27;13.52;;;;;;;15.35;100.00;102675.81;5239711;28;20141;-75
2022/10/18 08:03:55;;;;;;;18.00;13.32;;;;;;;15.33;100.00;102672.44;5243037;28;20044;-75
2022/10/18 08:06:26;;;;;;;24.67;13.90;;;;;;;15.42;100.00;102678.81;5245857;28;20466;-75
2022/10/18 08:08:58;;;;;;;17.00;14.68;;;;;;;15.48;100.00;102683.66;5248820;28;20043;-75
2022/10/18 08:11:29;;;;;;;20.65;14.45;;;;;;;15.50;100.00;102697.59;5245723;28;20478;-75
2022/10/18 08:14:00;;;;;;;23.08;14.55;;;;;;;15.49;100.00;102696.75;5247105;28;20112;-75
2022/10/18 08:16:31;;;;;;;19.38;14.93;;;;;;;15.57;100.00;102694.34;5247092;28;20017;-75
2022/10/18 08:19:03;;;;;;;21.55;15.65;;;;;;;15.57;100.00;102698.81;5249003;28;20029;-75
2022/10/18 08:21:34;;;;;;;22.48;15.48;;;;;;;15.55;100.00;102696.25;5248691;28;20028;-75
2022/10/18 08:24:05;;;;;;;19.65;15.00;;;;;;;15.69;100.00;102687.31;5245726;28;20028;-75
2022/10/18 08:26:37;;;;;;;22.27;15.98;;;;;;;15.67;100.00;102706.88;5245940;28;20021;-75
2022/10/18 08:29:09;;;;;;;21.45;15.90;;;;;;;15.69;100.00;102702.34;5238621;28;20049;-75
2022/10/18 08:31:40;;;;;;;24.92;16.98;;;;;;;15.74;100.00;102710.75;5249225;28;20036;-75
2022/10/18 08:34:12;;;;;;;23.23;16.83;;;;;;;15.77;100.00;102707.88;5247696;28;20064;-75
2022/10/18 08:36:43;;;;;;;26.00;18.08;;;;;;;15.86;100.00;102711.59;5247713;28;20021;-75
2022/10/18 08:39:14;;;;;;;25.27;17.48;;;;;;;15.89;100.00;102716.66;5252213;28;20501;-76
2022/10/18 08:41:54;;;;;;;24.95;16.83;;;;;;;15.98;100.00;102718.56;5253033;28;20487;-76
2022/10/18 08:44:29;;;;;;;23.08;16.55;;;;;;;16.01;100.00;102710.41;5253542;28;20056;-76
2022/10/18 08:47:10;;;;;;;24.73;17.48;;;;;;;16.07;100.00;102715.22;5252997;28;20094;-76
2022/10/18 08:50:04;;;;;;;25.75;16.88;;;;;;;16.18;100.00;102711.72;5252535;28;20037;-76
2022/10/18 08:52:43;;;;;;;24.55;17.25;;;;;;;16.13;100.00;102720.00;5255018;28;20016;-76
2022/10/18 08:55:23;;;;;;;21.80;16.33;;;;;;;16.16;100.00;102725.06;5252830;28;20146;-76
2022/10/18 08:57:56;;;;;;;23.98;15.93;;;;;;;16.07;100.00;102711.72;5253383;28;20366;-74
2022/10/18 09:00:33;;;;;;;22.25;16.52;;;;;;;16.07;100.00;102722.31;5252875;28;20446;-73
2022/10/18 09:03:42;;;;;;;25.20;15.77;;;;;;;16.24;100.00;102733.22;5253350;28;20119;-73
2022/10/18 09:06:31;;;;;;;25.27;15.55;;;;;;;16.10;100.00;102722.03;5254055;28;20138;-73
2022/10/18 09:09:29;;;;;;;24.13;15.15;;;;;;;16.26;100.00;102717.25;5251667;28;20027;-73
2022/10/18 09:12:30;;;;;;;25.05;15.23;;;;;;;16.34;100.00;102717.47;5251739;28;20033;-73
2022/10/18 09:15:34;;;;;;;25.13;14.57;;;;;;;16.39;100.00;102725.03;5250718;28;20043;-73
2022/10/18 09:18:42;;;;;;;25.40;14.85;;;;;;;16.30;100.00;102731.91;5248403;28;20049;-73
2022/10/18 09:21:17;;;;;;;26.92;14.20;;;;;;;16.08;100.00;102727.47;5247195;28;20051;-73
2022/10/18 09:23:53;;;;;;;24.73;15.00;;;;;;;16.20;100.00;102720.38;5253613;28;20021;-73
2022/10/18 09:26:24;;;;;;;21.27;14.63;;;;;;;16.22;100.00;102724.59;5251972;28;20025;-73
2022/10/18 09:29:28;;;;;;;21.33;14.48;;;;;;;16.60;100.00;102725.97;5250971;28;20031;-73
2022/10/18 09:32:37;;;;;;;19.55;13.13;;;;;;;16.59;100.00;102718.97;5252207;28;20473;-75
2022/10/18 09:35:23;;;;;;;21.63;13.82;;;;;;;16.51;100.00;102713.47;5250898;28;20025;-75
2022/10/18 09:38:02;;;;;;;17.77;13.45;;;;;;;16.53;100.00;102725.63;5249923;28;20501;-75
2022/10/18 09:40:37;;;;;;;18.80;12.38;;;;;;;16.57;100.00;102728.03;5252121;28;20078;-75
2022/10/18 09:43:16;;;;;;;15.32;10.60;;;;;;;16.61;100.00;102732.94;5253695;28;20028;-75
2022/10/18 09:45:51;;;;;;;17.02;10.88;;;;;;;16.61;100.00;102724.16;5252485;28;20025;-75
2022/10/18 09:48:28;;;;;;;19.02;9.77;;;;;;;16.82;100.00;102726.91;5253923;28;20025;-73
2022/10/18 09:51:02;;;;;;;16.40;10.25;;;;;;;16.70;100.00;102737.47;5251602;28;20025;-73
2022/10/18 09:53:42;;;;;;;20.48;10.25;;;;;;;16.78;100.00;102735.13;5251399;28;20024;-73
2022/10/18 09:56:19;;;;;;;14.82;10.40;;;;;;;16.93;100.00;102740.09;5250495;28;20099;-73
2022/10/18 09:58:50;;;;;;;15.95;10.27;;;;;;;16.96;100.00;102735.41;5252429;28;20116;-73
2022/10/18 10:01:24;;;;;;;15.40;10.88;;;;;;;17.09;100.00;102724.66;5251568;28;20481;-73
2022/10/18 10:03:56;;;;;;;17.67;10.88;;;;;;;17.02;100.00;102723.47;5252114;28;20009;-73
2022/10/18 10:06:30;;;;;;;21.60;12.07;;;;;;;17.08;100.00;102722.94;5251957;28;20029;-73
2022/10/18 10:09:13;;;;;;;19.90;11.95;;;;;;;17.18;100.00;102731.81;5250980;28;20033;-73
2022/10/18 10:11:47;;;;;;;14.65;10.55;;;;;;;17.28;100.00;102723.97;5247374;28;20032;-73
2022/10/18 10:14:25;;;;;;;19.15;10.55;;;;;;;17.31;100.00;102725.50;5252235;28;20078;-73
2022/10/18 10:17:05;;;;;;;17.67;9.65;;;;;;;17.27;100.00;102731.06;5251984;28;20439;-73
2022/10/18 10:19:55;;;;;;;12.60;9.38;;;;;;;17.32;100.00;102720.09;5251311;28;20090;-73
2022/10/18 10:22:35;;;;;;;15.88;9.38;;;;;;;17.57;100.00;102725.94;5251239;28;20072;-73
2022/10/18 10:25:20;;;;;;;16.83;8.82;;;;;;;17.67;100.00;102725.03;5251925;28;20673;-73
2022/10/18 10:27:51;;;;;;;14.80;7.78;;;;;;;17.60;100.00;102728.34;5252899;28;20478;-73
2022/10/18 10:30:34;;;;;;;13.77;9.18;;;;;;;17.78;100.00;102734.78;5251190;28;20032;-73
2022/10/18 10:33:30;;;;;;;14.32;8.35;;;;;;;17.94;100.00;102728.97;5252839;28;20094;-73
2022/10/18 10:36:05;;;;;;;13.38;8.82;;;;;;;17.79;100.00;102741.75;5253091;28;20047;-73
2022/10/18 10:38:37;;;;;;;18.63;9.88;;;;;;;17.70;100.00;102746.00;5252186;28;20448;-73
2022/10/18 10:41:22;;;;;;;13.20;9.40;;;;;;;18.03;100.00;102751.22;5250761;28;20036;-73
2022/10/18 10:43:54;;;;;;;14.15;9.00;;;;;;;18.02;100.00;102750.38;5251020;28;20396;-73
2022/10/18 10:46:33;;;;;;;16.08;8.95;;;;;;;18.16;100.00;102755.34;5253828;28;20033;-73
2022/10/18 10:49:05;;;;;;;15.15;9.40;;;;;;;17.85;100.00;102741.22;5256333;28;20108;-73
2022/10/18 10:51:38;;;;;;;17.52;8.75;;;;;;;18.00;100.00;102762.94;5255899;28;20104;-73
2022/10/18 10:54:21;;;;;;;17.35;9.25;;;;;;;18.18;100.00;102758.72;5252013;28;20065;-73
2022/10/18 10:57:10;;;;;;;12.47;7.40;;;;;;;18.32;100.00;102760.13;5257703;28;20044;-73
2022/10/18 10:59:58;;;;;;;11.70;6.63;;;;;;;18.50;100.00;102768.31;5254751;28;20037;-73
2022/10/18 11:02:32;;;;;;;13.65;5.50;;;;;;;18.37;100.00;102760.59;5255725;28;20107;-73
2022/10/18 11:05:25;;;;;;;9.68;4.60;;;;;;;18.74;100.00;102762.66;5254892;28;20036;-73
2022/10/18 11:08:00;;;;;;;;;;;;;;;19.19;100.00;102762.97;5257735;28;20024;-73
2022/10/18 11:10:38;;;;;;;12.40;4.40;;;;;;;18.43;100.00;102764.50;5257930;28;20388;-74
2022/10/18 11:13:47;;;;;;;15.68;4.55;;;;;;;18.69;100.00;102764.84;5254004;28;20029;-74
2022/10/18 11:16:28;;;;;;;10.32;3.97;;;;;;;18.63;100.00;102765.41;5252868;28;20364;-74
2022/10/18 11:19:09;;;;;;;11.05;4.07;;;;;;;18.76;100.00;102766.03;5255259;28;20397;-74
2022/10/18 11:21:41;;;;;;;12.02;5.38;;;;;;;18.90;100.00;102772.75;5255095;28;20496;-74
2022/10/18 11:24:15;;;;;;;16.00;5.50;;;;;;;18.70;100.00;102764.75;5255742;28;20072;-73
2022/10/18 11:27:03;;;;;;;10.32;3.92;;;;;;;18.89;100.00;102766.59;5253803;28;20036;-73
2022/10/18 11:29:49;;;;;;;10.32;3.60;;;;;;;19.05;100.00;102760.72;5254418;28;20031;-73
2022/10/18 11:32:37;;;;;;;7.78;3.30;;;;;;;19.18;100.00;102763.13;5254661;28;20021;-73
2022/10/18 11:35:30;;;;;;;8.85;2.67;;;;;;;19.09;100.00;102764.81;5256533;28;20040;-74
2022/10/18 11:38:21;;;;;;;13.25;2.83;;;;;;;19.12;100.00;102753.03;5254748;28;20037;-73
2022/10/18 11:41:18;;;;;;;11.25;2.90;;;;;;;19.19;100.00;102762.16;5255654;28;20025;-73
2022/10/18 11:43:53;;;;;;;7.60;2.67;;;;;;;18.89;100.00;102757.78;5255902;28;20021;-73
2022/10/18 11:46:51;;;;;;;10.70;3.05;;;;;;;19.03;100.00;102761.88;5255648;28;20025;-73
2022/10/18 11:49:41;;;;;;;8.48;2.75;;;;;;;19.14;100.00;102757.25;5249812;28;20051;-74